Terminal Aerodrome Forecast
Issued by NWS Hastings, NE

Home | Current Version | Previous Version | Text Only | Print | Product List | Glossary On
Versions: 1 2 3 4 5 6 7 8 9 10 11 12 13 14 15 16 17 18 19 20 21 22 23 24 25 26 27 28
000
FTUS43 KGID 031746
TAFGRI
TAF
KGRI 031746Z 0318/0418 25012KT P6SM SCT100
     FM032200 36011KT P6SM VCTS BKN070CB
     FM040300 02013G18KT P6SM VCTS BKN070CB
     FM040600 02013G18KT P6SM SCT020 BKN070
     FM041300 05013G19KT P6SM VCSH BKN015=

USA.gov is the U.S. government's official web portal to all federal, state and local government web resources and services.